createdAt,value
2023-02-14T00:04:23.067Z,18.77
2023-02-14T00:09:27.111Z,19.03
2023-02-14T00:14:47.499Z,18.07
2023-02-14T00:19:50.449Z,18.07
2023-02-14T00:24:54.456Z,19.50
2023-02-14T00:30:01.866Z,20.27
2023-02-14T00:35:04.860Z,19.07
2023-02-14T00:40:10.024Z,19.23
2023-02-14T00:45:12.671Z,19.23
2023-02-14T00:50:15.483Z,20.60
2023-02-14T00:55:19.562Z,20.30
2023-02-14T01:00:23.024Z,19.83
2023-02-14T01:05:25.715Z,20.43
2023-02-14T01:10:29.732Z,20.67
2023-02-14T01:15:33.628Z,19.50
2023-02-14T01:20:36.824Z,19.30
2023-02-14T01:25:41.046Z,20.20
2023-02-14T01:30:43.737Z,18.70
2023-02-14T01:35:46.397Z,19.10
2023-02-14T01:40:51.002Z,19.53
2023-02-14T01:45:53.655Z,19.20
2023-02-14T01:50:57.017Z,20.03
2023-02-14T01:56:06.861Z,20.30
2023-02-14T02:01:09.682Z,19.10
2023-02-14T02:06:16.906Z,19.57
2023-02-14T02:11:20.892Z,20.27
2023-02-14T02:16:39.124Z,20.50
2023-02-14T02:22:20.141Z,19.53
2023-02-14T02:27:49.074Z,18.57
2023-02-14T02:33:29.282Z,19.70
2023-02-14T02:38:55.408Z,19.27
2023-02-14T02:44:07.583Z,19.33
2023-02-14T02:49:37.340Z,19.53
2023-02-14T02:54:45.572Z,19.93
2023-02-14T02:59:50.371Z,18.20
2023-02-14T03:04:57.798Z,19.23
2023-02-14T03:10:05.552Z,19.20
2023-02-14T03:15:17.221Z,19.10
2023-02-14T03:20:24.431Z,18.90
2023-02-14T03:25:42.519Z,18.37
2023-02-14T03:30:53.248Z,17.87
2023-02-14T03:36:01.967Z,17.63
2023-02-14T03:41:09.722Z,17.73
2023-02-14T03:46:17.385Z,18.07
2023-02-14T03:51:22.060Z,17.00
2023-02-14T03:56:35.554Z,17.13
2023-02-14T04:01:45.354Z,16.97
2023-02-14T04:06:48.365Z,16.67
2023-02-14T04:11:52.420Z,16.50
2023-02-14T04:23:08.909Z,17.80
2023-02-14T04:29:03.920Z,17.90
2023-02-14T04:45:44.931Z,20.13
2023-02-14T04:51:10.103Z,18.80
2023-02-14T04:56:42.988Z,17.80
2023-02-14T05:08:06.739Z,19.50
2023-02-14T05:13:41.918Z,18.27
2023-02-14T05:31:33.441Z,15.77
2023-02-14T05:43:26.038Z,15.47
2023-02-14T05:49:06.512Z,15.93
2023-02-14T05:54:28.354Z,15.43
2023-02-14T06:17:26.777Z,18.47
2023-02-14T06:35:18.544Z,18.30
2023-02-14T06:52:06.275Z,16.33
2023-02-14T07:03:16.081Z,17.13
2023-02-14T07:26:11.671Z,18.53
2023-02-14T07:37:45.621Z,19.40
2023-02-14T07:43:32.293Z,17.97
2023-02-14T07:49:12.155Z,19.30
2023-02-14T07:54:29.532Z,17.00
2023-02-14T07:59:38.527Z,15.40
2023-02-14T08:11:01.662Z,15.43
2023-02-14T08:16:15.818Z,16.67
2023-02-14T08:21:46.114Z,14.53
2023-02-14T08:27:01.742Z,15.60
2023-02-14T08:32:18.284Z,13.87
2023-02-14T08:38:17.951Z,15.17
2023-02-14T08:44:03.541Z,14.00
2023-02-14T08:49:38.577Z,8.77
2023-02-14T08:54:59.166Z,9.90
2023-02-14T09:00:35.077Z,9.73
2023-02-14T09:05:43.259Z,9.83
2023-02-14T09:10:55.251Z,9.93
2023-02-14T09:16:24.065Z,10.53
2023-02-14T09:21:35.788Z,10.27
2023-02-14T09:26:53.928Z,10.43
2023-02-14T09:32:10.880Z,10.63
2023-02-14T09:37:20.013Z,11.20
2023-02-14T09:42:51.203Z,9.77
2023-02-14T09:47:58.706Z,9.80
2023-02-14T09:53:10.004Z,9.57
2023-02-14T09:58:22.401Z,8.67
2023-02-14T10:04:08.293Z,10.67
2023-02-14T10:09:23.230Z,9.20
2023-02-14T10:14:29.606Z,9.73
2023-02-14T10:19:40.283Z,9.43
2023-02-14T10:24:47.022Z,10.03
2023-02-14T10:29:49.928Z,10.53
2023-02-14T10:34:57.498Z,11.33
2023-02-14T10:40:21.313Z,10.13
2023-02-14T10:45:32.143Z,9.70
2023-02-14T10:50:44.679Z,10.30
2023-02-14T10:55:52.013Z,9.83
2023-02-14T11:01:00.759Z,11.23
2023-02-14T11:06:05.063Z,10.23
2023-02-14T11:11:16.338Z,10.03
2023-02-14T11:16:31.863Z,9.53
2023-02-14T11:21:40.646Z,10.27
2023-02-14T11:26:52.909Z,9.80
2023-02-14T11:31:56.061Z,10.73
2023-02-14T11:37:00.933Z,10.00
2023-02-14T11:42:05.725Z,9.90
2023-02-14T11:47:21.283Z,10.17
2023-02-14T11:52:32.918Z,9.07
2023-02-14T11:57:39.197Z,9.50
2023-02-14T12:02:44.489Z,8.80
2023-02-14T12:07:50.618Z,9.20
2023-02-14T12:13:00.557Z,9.63
2023-02-14T12:18:29.930Z,10.17
2023-02-14T12:23:42.013Z,9.17
2023-02-14T12:28:49.064Z,8.53
2023-02-14T12:33:51.746Z,8.70
2023-02-14T12:39:06.147Z,9.00
2023-02-14T12:44:17.147Z,8.73
2023-02-14T12:49:35.715Z,8.37
2023-02-14T12:54:50.250Z,8.57
2023-02-14T12:59:58.852Z,8.73
2023-02-14T13:05:06.560Z,8.20
2023-02-14T13:10:24.630Z,8.80
2023-02-14T13:15:35.857Z,9.30
2023-02-14T13:20:49.503Z,8.70
2023-02-14T13:25:59.227Z,8.70
2023-02-14T13:31:02.712Z,9.17
2023-02-14T13:36:09.173Z,8.50
2023-02-14T13:41:14.886Z,8.93
2023-02-14T13:46:20.356Z,8.87
2023-02-14T13:51:23.423Z,9.30
2023-02-14T13:56:35.848Z,8.90
2023-02-14T14:01:42.130Z,9.23
2023-02-14T14:07:20.960Z,9.63
2023-02-14T14:12:44.644Z,10.73
2023-02-14T14:18:23.687Z,10.83
2023-02-14T14:23:34.334Z,12.80
2023-02-14T14:28:38.410Z,12.30
2023-02-14T14:33:41.088Z,12.60
2023-02-14T14:38:49.232Z,13.90
2023-02-14T14:43:53.682Z,13.60
2023-02-14T14:48:57.653Z,14.30
2023-02-14T14:54:03.442Z,14.80
2023-02-14T14:59:27.221Z,15.47
2023-02-14T15:04:32.055Z,14.87
2023-02-14T15:09:35.820Z,15.60
2023-02-14T15:14:43.062Z,15.20
2023-02-14T15:19:50.828Z,15.23
2023-02-14T15:24:54.194Z,15.87
2023-02-14T15:30:00.454Z,14.33
2023-02-14T15:35:06.087Z,13.73
2023-02-14T15:40:16.857Z,13.63
2023-02-14T15:45:25.435Z,15.43
2023-02-14T15:50:30.307Z,15.07
2023-02-14T15:55:34.339Z,16.97
2023-02-14T16:00:38.578Z,18.67
2023-02-14T16:05:48.088Z,16.80
2023-02-14T16:11:01.308Z,16.97
2023-02-14T16:16:07.350Z,17.07
2023-02-14T16:21:28.621Z,17.53
2023-02-14T16:26:31.890Z,17.17
2023-02-14T16:32:06.208Z,18.73
2023-02-14T16:37:18.032Z,19.10
2023-02-14T16:42:21.035Z,17.43
2023-02-14T16:47:27.703Z,14.53
2023-02-14T16:52:30.741Z,18.87
2023-02-14T16:57:38.045Z,18.10
2023-02-14T17:02:44.153Z,18.53
2023-02-14T17:07:47.061Z,20.27
2023-02-14T17:12:50.596Z,20.67
2023-02-14T17:17:57.912Z,19.50
2023-02-14T17:23:00.710Z,21.80
2023-02-14T17:28:03.390Z,20.97
2023-02-14T17:33:07.493Z,21.53
2023-02-14T17:38:10.240Z,23.20
2023-02-14T17:43:12.933Z,23.43
2023-02-14T17:48:16.885Z,26.27
2023-02-14T17:53:19.558Z,24.87
2023-02-14T17:58:22.207Z,23.43
2023-02-14T18:03:26.239Z,23.73
2023-02-14T18:08:29.662Z,24.20
2023-02-14T18:13:33.392Z,24.07
2023-02-14T18:18:38.101Z,24.43
2023-02-14T18:23:41.078Z,25.33
2023-02-14T18:28:44.088Z,24.87
2023-02-14T18:33:50.011Z,25.37
2023-02-14T18:38:54.712Z,26.20
2023-02-14T18:43:57.446Z,27.83
2023-02-14T18:49:01.449Z,26.10
2023-02-14T18:54:05.365Z,26.73
2023-02-14T21:57:10.287Z,32.83
2023-02-14T22:02:13.673Z,31.07
2023-02-14T22:07:16.872Z,29.00
2023-02-14T22:12:30.867Z,28.27
2023-02-14T22:17:45.424Z,26.23
2023-02-14T22:22:58.565Z,28.57
2023-02-14T22:28:06.388Z,27.13
2023-02-14T22:33:09.944Z,26.33
2023-02-14T22:38:21.706Z,26.97
2023-02-14T22:43:39.210Z,27.63
2023-02-14T22:48:46.255Z,24.97
2023-02-14T22:54:02.687Z,24.73
2023-02-14T22:59:29.603Z,24.83
2023-02-14T23:04:38.498Z,25.97
2023-02-14T23:09:47.971Z,25.07
2023-02-14T23:15:11.541Z,25.17
2023-02-14T23:20:34.484Z,23.20
2023-02-14T23:25:45.786Z,24.10
2023-02-14T23:30:54.556Z,25.07
2023-02-14T23:36:06.249Z,24.07
2023-02-14T23:41:30.052Z,24.13
2023-02-14T23:46:40.559Z,23.53
2023-02-14T23:51:46.418Z,23.83
2023-02-14T23:56:59.794Z,24.27
